createdAt,value
2022-11-28T00:01:31.269Z,5.75
2022-11-28T00:03:59.400Z,5.76
2022-11-28T00:06:28.261Z,5.80
2022-11-28T00:08:58.347Z,5.82
2022-11-28T00:11:27.837Z,5.83
2022-11-28T00:13:56.219Z,5.85
2022-11-28T00:16:25.065Z,5.88
2022-11-28T00:18:54.564Z,5.90
2022-11-28T00:21:23.472Z,5.92
2022-11-28T00:23:52.432Z,5.93
2022-11-28T00:26:22.031Z,5.95
2022-11-28T00:28:51.529Z,5.96
2022-11-28T00:31:21.671Z,5.98
2022-11-28T00:33:49.852Z,5.99
2022-11-28T00:36:18.360Z,5.98
2022-11-28T00:38:46.135Z,5.97
2022-11-28T00:41:15.620Z,5.99
2022-11-28T00:43:45.410Z,5.99
2022-11-28T00:46:15.685Z,5.98
2022-11-28T00:48:43.509Z,6.01
2022-11-28T00:51:12.865Z,6.00
2022-11-28T00:53:42.542Z,6.06
2022-11-28T00:56:12.283Z,6.08
2022-11-28T00:58:41.986Z,6.11
2022-11-28T01:01:11.448Z,6.10
2022-11-28T01:03:41.671Z,6.07
2022-11-28T01:06:10.932Z,6.06
2022-11-28T01:08:39.453Z,6.10
2022-11-28T01:11:13.103Z,6.09
2022-11-28T01:13:41.386Z,6.10
2022-11-28T01:16:10.163Z,6.08
2022-11-28T01:18:38.161Z,6.12
2022-11-28T01:21:08.071Z,6.16
2022-11-28T01:23:36.489Z,6.20
2022-11-28T01:26:06.954Z,6.25
2022-11-28T01:28:35.658Z,6.27
2022-11-28T01:31:07.449Z,6.28
2022-11-28T01:33:35.412Z,6.32
2022-11-28T01:36:04.162Z,6.38
2022-11-28T01:38:34.562Z,6.44
2022-11-28T01:41:02.894Z,6.49
2022-11-28T01:43:31.139Z,6.57
2022-11-28T01:45:58.971Z,6.60
2022-11-28T01:48:28.631Z,6.66
2022-11-28T01:50:59.283Z,6.70
2022-11-28T01:53:29.821Z,6.73
2022-11-28T01:56:03.043Z,6.76
2022-11-28T01:58:31.881Z,6.80
2022-11-28T02:01:00.335Z,6.80
2022-11-28T02:03:34.529Z,6.84
2022-11-28T02:06:02.885Z,6.85
2022-11-28T02:08:34.403Z,6.85
2022-11-28T02:11:30.789Z,6.89
2022-11-28T02:14:11.275Z,6.91
2022-11-28T02:16:51.542Z,6.93
2022-11-28T02:19:47.590Z,6.95
2022-11-28T02:22:21.886Z,6.96
2022-11-28T02:25:16.972Z,6.95
2022-11-28T02:28:02.172Z,6.96
2022-11-28T02:30:43.442Z,6.94
2022-11-28T02:33:18.756Z,6.94
2022-11-28T02:35:56.839Z,6.94
2022-11-28T02:38:36.561Z,6.96
2022-11-28T02:41:11.589Z,6.97
2022-11-28T02:43:48.283Z,6.96
2022-11-28T02:46:21.725Z,6.96
2022-11-28T02:48:54.305Z,6.96
2022-11-28T02:51:28.270Z,6.98
2022-11-28T02:53:57.834Z,7.00
2022-11-28T02:56:26.276Z,7.00
2022-11-28T02:58:54.770Z,6.98
2022-11-28T03:01:25.942Z,6.97
2022-11-28T03:03:59.453Z,6.98
2022-11-28T03:06:36.600Z,6.97
2022-11-28T03:09:13.254Z,6.98
2022-11-28T03:11:51.066Z,6.98
2022-11-28T03:14:29.349Z,6.98
2022-11-28T03:17:09.007Z,6.92
2022-11-28T03:19:40.814Z,6.95
2022-11-28T03:22:13.030Z,6.95
2022-11-28T03:24:45.320Z,6.95
2022-11-28T03:27:19.615Z,6.94
2022-11-28T03:29:53.480Z,6.92
2022-11-28T03:32:25.362Z,6.93
2022-11-28T03:35:01.739Z,6.95
2022-11-28T03:37:34.106Z,6.94
2022-11-28T03:40:08.735Z,6.92
2022-11-28T03:42:40.914Z,6.92
2022-11-28T03:45:12.455Z,6.92
2022-11-28T03:47:44.589Z,6.91
2022-11-28T03:50:18.448Z,6.92
2022-11-28T03:52:51.704Z,6.92
2022-11-28T03:55:24.578Z,6.87
2022-11-28T03:57:59.531Z,6.86
2022-11-28T04:00:27.573Z,6.87
2022-11-28T04:03:12.792Z,6.88
2022-11-28T04:05:48.104Z,6.90
2022-11-28T04:08:19.189Z,6.91
2022-11-28T04:10:55.294Z,6.87
2022-11-28T04:13:27.304Z,6.89
2022-11-28T04:15:59.898Z,6.91
2022-11-28T04:18:30.763Z,6.89
2022-11-28T04:21:09.112Z,6.90
2022-11-28T04:23:40.164Z,6.89
2022-11-28T04:26:13.445Z,6.91
2022-11-28T04:28:42.903Z,6.89
2022-11-28T04:31:11.424Z,6.92
2022-11-28T04:33:43.238Z,6.89
2022-11-28T04:36:13.709Z,6.93
2022-11-28T04:38:43.492Z,6.96
2022-11-28T04:41:16.123Z,6.96
2022-11-28T04:43:50.944Z,6.95
2022-11-28T04:46:25.162Z,6.94
2022-11-28T04:48:53.016Z,6.90
2022-11-28T04:51:26.559Z,6.92
2022-11-28T04:54:01.899Z,6.93
2022-11-28T04:56:35.415Z,6.98
2022-11-28T04:59:06.298Z,6.93
2022-11-28T05:01:35.692Z,6.87
2022-11-28T05:04:03.958Z,6.83
2022-11-28T05:06:35.458Z,6.83
2022-11-28T05:09:03.367Z,6.87
2022-11-28T05:11:31.794Z,6.87
2022-11-28T05:13:59.541Z,6.86
2022-11-28T05:16:27.357Z,6.81
2022-11-28T05:18:55.153Z,6.84
2022-11-28T05:21:23.014Z,6.87
2022-11-28T05:23:52.039Z,6.86
2022-11-28T05:26:22.280Z,6.89
2022-11-28T05:28:51.774Z,6.90
2022-11-28T05:31:20.697Z,6.86
2022-11-28T05:33:48.540Z,6.88
2022-11-28T05:36:18.587Z,6.85
2022-11-28T05:38:46.731Z,6.85
2022-11-28T05:41:21.679Z,6.87
2022-11-28T05:43:49.502Z,6.87
2022-11-28T05:46:17.584Z,6.86
2022-11-28T05:48:45.448Z,6.84
2022-11-28T05:51:13.644Z,6.81
2022-11-28T05:53:41.559Z,6.74
2022-11-28T05:56:10.368Z,6.77
2022-11-28T05:58:39.827Z,6.78
2022-11-28T06:01:11.151Z,6.80
2022-11-28T06:03:38.914Z,6.79
2022-11-28T06:06:12.556Z,6.84
2022-11-28T06:08:40.361Z,6.86
2022-11-28T06:11:08.437Z,6.89
2022-11-28T06:13:36.209Z,6.89
2022-11-28T06:16:08.589Z,6.90
2022-11-28T06:18:36.387Z,6.88
2022-11-28T06:21:04.936Z,6.87
2022-11-28T06:23:33.052Z,6.86
2022-11-28T06:26:07.148Z,6.89
2022-11-28T06:28:35.500Z,6.86
2022-11-28T06:31:03.450Z,6.86
2022-11-28T06:33:32.530Z,6.90
2022-11-28T06:36:01.954Z,6.96
2022-11-28T06:38:29.795Z,7.00
2022-11-28T06:40:58.617Z,7.03
2022-11-28T06:43:26.747Z,7.05
2022-11-28T06:45:54.775Z,7.06
2022-11-28T06:48:23.351Z,7.06
2022-11-28T06:50:53.008Z,7.04
2022-11-28T06:53:21.476Z,7.04
2022-11-28T06:55:49.186Z,7.04
2022-11-28T06:58:16.904Z,7.04
2022-11-28T07:00:45.220Z,7.00
2022-11-28T07:03:13.292Z,7.03
2022-11-28T07:05:41.039Z,7.04
2022-11-28T07:08:10.156Z,7.06
2022-11-28T07:10:37.988Z,7.06
2022-11-28T07:13:05.896Z,6.98
2022-11-28T07:15:33.694Z,7.00
2022-11-28T07:18:01.426Z,7.03
2022-11-28T07:20:29.260Z,7.07
2022-11-28T07:22:56.988Z,7.03
2022-11-28T07:25:26.095Z,7.06
2022-11-28T07:27:53.860Z,7.11
2022-11-28T07:30:23.144Z,7.08
2022-11-28T07:32:50.869Z,7.11
2022-11-28T07:35:18.686Z,7.13
2022-11-28T07:37:46.452Z,7.15
2022-11-28T07:40:14.681Z,7.17
2022-11-28T07:42:43.744Z,7.18
2022-11-28T07:45:12.508Z,7.18
2022-11-28T07:47:40.282Z,7.22
2022-11-28T07:50:09.325Z,7.23
2022-11-28T07:52:37.327Z,7.18
2022-11-28T07:55:05.524Z,7.18
2022-11-28T07:57:33.979Z,7.19
2022-11-28T08:00:04.587Z,7.23
2022-11-28T08:02:40.414Z,7.21
2022-11-28T08:05:08.668Z,7.21
2022-11-28T08:07:36.608Z,7.21
2022-11-28T08:10:05.169Z,7.23
2022-11-28T08:12:32.887Z,7.18
2022-11-28T08:15:00.622Z,7.19
2022-11-28T08:17:29.734Z,7.19
2022-11-28T08:19:57.517Z,7.21
2022-11-28T08:22:25.239Z,7.29
2022-11-28T08:24:53.006Z,7.33
2022-11-28T08:27:20.840Z,7.34
2022-11-28T08:29:52.049Z,7.28
2022-11-28T08:32:21.380Z,7.31
2022-11-28T08:34:50.531Z,7.31
2022-11-28T08:37:18.328Z,7.28
2022-11-28T08:39:46.068Z,7.29
2022-11-28T08:42:13.751Z,7.32
2022-11-28T08:44:41.624Z,7.38
2022-11-28T08:47:09.379Z,7.43
2022-11-28T08:49:37.752Z,7.43
2022-11-28T08:52:07.416Z,7.47
2022-11-28T08:54:35.179Z,7.43
2022-11-28T08:57:03.112Z,7.44
2022-11-28T08:59:31.016Z,7.49
2022-11-28T09:01:58.919Z,7.52
2022-11-28T09:04:26.710Z,7.55
2022-11-28T09:06:54.499Z,7.53
2022-11-28T09:09:23.686Z,7.53
2022-11-28T09:11:51.570Z,7.40
2022-11-28T09:14:19.365Z,7.40
2022-11-28T09:16:47.161Z,7.38
2022-11-28T09:19:15.032Z,7.38
2022-11-28T09:21:42.845Z,7.32
2022-11-28T09:24:11.649Z,7.30
2022-11-28T09:26:41.015Z,7.30
2022-11-28T09:29:08.848Z,7.35
2022-11-28T09:31:36.599Z,7.38
2022-11-28T09:34:04.901Z,7.39
2022-11-28T09:36:33.366Z,7.50
2022-11-28T09:39:01.784Z,7.61
2022-11-28T09:41:45.479Z,7.61
2022-11-28T09:44:20.236Z,7.66
2022-11-28T09:46:49.411Z,7.63
2022-11-28T09:49:26.379Z,7.64
2022-11-28T09:51:57.904Z,7.68
2022-11-28T09:54:33.894Z,7.77
2022-11-28T09:57:04.858Z,7.81
2022-11-28T09:59:32.742Z,7.81
2022-11-28T10:02:16.671Z,7.81
2022-11-28T10:04:52.342Z,7.81
2022-11-28T10:07:27.251Z,7.82
2022-11-28T10:10:00.599Z,7.77
2022-11-28T10:12:40.809Z,7.79
2022-11-28T10:15:21.174Z,7.85
2022-11-28T10:18:01.413Z,7.93
2022-11-28T10:20:33.773Z,7.90
2022-11-28T10:23:05.907Z,7.94
2022-11-28T10:25:38.043Z,7.92
2022-11-28T10:28:14.555Z,7.91
2022-11-28T10:30:47.593Z,7.95
2022-11-28T10:33:23.873Z,7.98
2022-11-28T10:35:55.992Z,8.04
2022-11-28T10:38:27.467Z,8.06
2022-11-28T10:41:01.763Z,8.06
2022-11-28T10:43:39.337Z,8.13
2022-11-28T10:46:24.619Z,8.24
2022-11-28T10:48:58.027Z,8.23
2022-11-28T10:51:35.618Z,8.30
2022-11-28T10:54:19.404Z,8.29
2022-11-28T10:56:55.152Z,8.33
2022-11-28T10:59:36.009Z,8.33
2022-11-28T11:02:21.000Z,8.35
2022-11-28T11:04:49.329Z,8.33
2022-11-28T11:07:26.496Z,8.32
2022-11-28T11:10:01.100Z,8.21
2022-11-28T11:12:33.494Z,8.17
2022-11-28T11:15:17.459Z,8.17
2022-11-28T11:17:46.544Z,8.23
2022-11-28T11:20:35.168Z,8.15
2022-11-28T11:23:12.946Z,8.14
2022-11-28T11:25:49.114Z,8.28
2022-11-28T11:28:30.605Z,8.36
2022-11-28T11:31:06.022Z,8.37
2022-11-28T11:33:36.288Z,8.42
2022-11-28T11:36:06.056Z,8.43
2022-11-28T11:38:38.027Z,8.44
2022-11-28T11:41:22.492Z,8.50
2022-11-28T11:43:50.364Z,8.59
2022-11-28T11:46:19.546Z,8.53
2022-11-28T11:48:49.256Z,8.54
2022-11-28T11:51:25.883Z,8.61
2022-11-28T11:54:05.028Z,8.63
2022-11-28T11:56:38.177Z,8.62
2022-11-28T11:59:14.800Z,8.59
2022-11-28T12:01:46.788Z,8.62
2022-11-28T12:04:43.863Z,8.64
2022-11-28T12:07:18.197Z,8.69
2022-11-28T12:09:49.369Z,8.77
2022-11-28T12:12:19.093Z,8.79
2022-11-28T12:14:49.340Z,8.80
2022-11-28T12:17:48.634Z,8.84
2022-11-28T12:20:38.229Z,8.88
2022-11-28T12:23:17.883Z,8.89
2022-11-28T12:25:52.744Z,8.87
2022-11-28T12:28:32.011Z,8.89
2022-11-28T12:31:09.191Z,8.88
2022-11-28T12:33:51.596Z,8.93
2022-11-28T12:36:27.402Z,8.93
2022-11-28T12:39:01.239Z,8.93
2022-11-28T12:41:56.839Z,8.98
2022-11-28T12:44:38.576Z,9.03
2022-11-28T12:47:14.573Z,9.03
2022-11-28T12:49:54.146Z,9.05
2022-11-28T12:52:32.824Z,9.07
2022-11-28T12:55:20.125Z,9.09
2022-11-28T12:57:55.220Z,9.05
2022-11-28T13:00:26.218Z,9.05
2022-11-28T13:03:08.719Z,9.01
2022-11-28T13:05:53.228Z,9.05
2022-11-28T13:08:47.934Z,9.08
2022-11-28T13:11:31.318Z,9.05
2022-11-28T13:14:06.323Z,9.08
2022-11-28T13:16:43.778Z,9.07
2022-11-28T13:19:28.772Z,9.09
2022-11-28T13:22:08.447Z,9.13
2022-11-28T13:24:42.697Z,9.12
2022-11-28T13:27:21.865Z,9.08
2022-11-28T13:29:59.926Z,9.09
2022-11-28T13:32:35.290Z,9.15
2022-11-28T13:35:04.173Z,9.23
2022-11-28T13:40:41.284Z,9.25
2022-11-28T13:43:15.916Z,9.19
2022-11-28T13:45:46.177Z,9.16
2022-11-28T13:51:41.409Z,9.25
2022-11-28T13:54:43.607Z,9.24
2022-11-28T13:57:31.433Z,9.29
2022-11-28T14:00:06.883Z,9.29
2022-11-28T14:02:47.436Z,9.27
2022-11-28T14:05:34.830Z,9.31
2022-11-28T14:08:04.011Z,9.29
2022-11-28T14:10:59.615Z,9.34
2022-11-28T14:14:00.635Z,9.38
2022-11-28T14:16:44.285Z,9.32
2022-11-28T14:19:28.426Z,9.28
2022-11-28T14:22:08.899Z,9.33
2022-11-28T14:24:56.245Z,9.37
2022-11-28T14:27:29.163Z,9.37
2022-11-28T14:29:58.812Z,9.40
2022-11-28T14:32:33.279Z,9.42
2022-11-28T14:35:02.300Z,9.45
2022-11-28T14:37:52.980Z,9.50
2022-11-28T14:41:06.643Z,9.55
2022-11-28T14:43:38.221Z,9.54
2022-11-28T14:46:27.573Z,9.56
2022-11-28T14:49:18.990Z,9.52
2022-11-28T14:52:30.784Z,9.51
2022-11-28T14:54:55.767Z,9.53
2022-11-28T14:57:26.900Z,9.53
2022-11-28T14:59:58.839Z,9.55
2022-11-28T15:02:52.753Z,9.55
2022-11-28T15:05:31.396Z,9.55
2022-11-28T15:08:11.555Z,9.46
2022-11-28T15:10:49.021Z,9.25
2022-11-28T15:13:36.373Z,9.30
2022-11-28T15:16:11.311Z,9.29
2022-11-28T15:18:41.155Z,9.26
2022-11-28T15:21:16.173Z,9.29
2022-11-28T15:23:46.578Z,9.33
2022-11-28T15:26:23.092Z,9.32
2022-11-28T15:29:09.038Z,9.34
2022-11-28T15:31:38.885Z,9.27
2022-11-28T15:34:09.956Z,9.19
2022-11-28T15:36:39.469Z,9.25
2022-11-28T15:39:25.768Z,9.33
2022-11-28T15:41:53.907Z,9.35
2022-11-28T15:44:21.782Z,9.40
2022-11-28T15:46:51.380Z,9.39
2022-11-28T15:49:29.082Z,9.32
2022-11-28T15:52:00.204Z,9.36
2022-11-28T15:54:35.377Z,9.39
2022-11-28T15:57:04.161Z,9.43
2022-11-28T15:59:32.323Z,9.43
2022-11-28T16:02:12.698Z,9.45
2022-11-28T16:04:41.307Z,9.39
2022-11-28T16:07:14.835Z,9.35
2022-11-28T16:09:54.165Z,9.19
2022-11-28T16:12:22.068Z,9.16
2022-11-28T16:14:53.268Z,9.17
2022-11-28T16:17:27.028Z,9.19
2022-11-28T16:19:56.411Z,9.23
2022-11-28T16:22:31.337Z,9.29
2022-11-28T16:25:11.703Z,9.32
2022-11-28T16:27:42.559Z,9.34
2022-11-28T16:30:27.767Z,9.38
2022-11-28T16:32:57.664Z,9.41
2022-11-28T16:35:28.246Z,9.41
2022-11-28T16:38:15.153Z,9.45
2022-11-28T16:40:43.751Z,9.47
2022-11-28T16:43:21.400Z,9.48
2022-11-28T16:45:58.646Z,9.44
2022-11-28T16:48:29.583Z,9.39
2022-11-28T16:51:29.743Z,9.44
2022-11-28T16:53:59.576Z,9.48
2022-11-28T16:56:43.828Z,9.49
2022-11-28T16:59:14.092Z,9.48
2022-11-28T17:01:43.680Z,9.48
2022-11-28T17:04:21.860Z,9.43
2022-11-28T17:06:50.263Z,9.45
2022-11-28T17:09:18.148Z,9.49
2022-11-28T17:11:53.076Z,9.51
2022-11-28T17:14:22.003Z,9.47
2022-11-28T17:16:49.790Z,9.47
2022-11-28T17:19:17.743Z,9.44
2022-11-28T17:21:50.605Z,9.39
2022-11-28T17:24:20.945Z,9.41
2022-11-28T17:26:50.019Z,9.36
2022-11-28T17:29:18.203Z,9.21
2022-11-28T17:31:47.902Z,9.08
2022-11-28T17:34:17.250Z,9.03
2022-11-28T17:36:47.668Z,8.87
2022-11-28T17:39:16.117Z,8.80
2022-11-28T17:41:44.723Z,8.82
2022-11-28T17:44:18.205Z,8.75
2022-11-28T17:46:45.995Z,8.66
2022-11-28T17:49:14.251Z,8.63
2022-11-28T17:51:42.484Z,8.70
2022-11-28T17:54:16.223Z,8.77
2022-11-28T17:56:44.296Z,8.79
2022-11-28T17:59:13.788Z,8.83
2022-11-28T18:01:41.929Z,8.86
2022-11-28T18:04:09.825Z,8.87
2022-11-28T18:06:38.052Z,8.86
2022-11-28T18:09:11.992Z,8.84
2022-11-28T18:11:42.336Z,8.80
2022-11-28T18:14:11.055Z,8.78
2022-11-28T18:16:40.139Z,8.78
2022-11-28T18:19:08.316Z,8.74
2022-11-28T18:21:36.085Z,8.69
2022-11-28T18:24:04.641Z,8.63
2022-11-28T18:26:32.471Z,8.68
2022-11-28T18:29:01.662Z,8.67
2022-11-28T18:31:30.957Z,8.64
2022-11-28T18:34:02.525Z,8.59
2022-11-28T18:36:35.637Z,8.54
2022-11-28T18:39:06.149Z,8.39
2022-11-28T18:41:34.087Z,8.28
2022-11-28T18:44:05.446Z,8.22
2022-11-28T18:46:34.430Z,8.27
2022-11-28T18:49:03.245Z,8.31
2022-11-28T18:51:32.581Z,8.30
2022-11-28T18:54:02.698Z,8.25
2022-11-28T18:56:31.119Z,8.23
2022-11-28T18:58:59.751Z,8.23
2022-11-28T19:01:31.836Z,8.22
2022-11-28T19:04:04.201Z,8.19
2022-11-28T19:06:32.198Z,8.17
2022-11-28T19:09:01.808Z,8.16
2022-11-28T19:11:30.291Z,8.17
2022-11-28T19:13:58.952Z,8.17
2022-11-28T19:16:30.826Z,8.18
2022-11-28T19:18:59.457Z,8.18
2022-11-28T19:21:29.794Z,8.20
2022-11-28T19:23:57.686Z,8.23
2022-11-28T19:26:27.160Z,8.28
2022-11-28T19:28:55.728Z,8.28
2022-11-28T19:31:27.115Z,8.29
2022-11-28T19:34:01.469Z,8.31
2022-11-28T19:36:33.524Z,8.31
2022-11-28T19:39:02.244Z,8.33
2022-11-28T19:41:31.071Z,8.36
2022-11-28T19:43:59.106Z,8.34
2022-11-28T19:46:35.064Z,8.28
2022-11-28T19:49:06.345Z,8.22
2022-11-28T19:51:35.349Z,8.25
2022-11-28T19:54:04.168Z,8.29
2022-11-28T19:56:34.294Z,8.31
2022-11-28T19:59:03.197Z,8.36
2022-11-28T20:01:31.240Z,8.39
2022-11-28T20:03:59.758Z,8.36
2022-11-28T20:06:31.532Z,8.34
2022-11-28T20:09:01.392Z,8.33
2022-11-28T20:11:32.405Z,8.32
2022-11-28T20:14:02.185Z,8.31
2022-11-28T20:16:31.742Z,8.31
2022-11-28T20:19:01.338Z,8.30
2022-11-28T20:21:31.954Z,8.31
2022-11-28T20:24:04.262Z,8.32
2022-11-28T20:26:36.259Z,8.31
2022-11-28T20:29:05.399Z,8.27
2022-11-28T20:31:36.852Z,8.29
2022-11-28T20:34:06.131Z,8.24
2022-11-28T20:36:36.323Z,8.21
2022-11-28T20:39:06.043Z,8.21
2022-11-28T20:41:34.233Z,8.22
2022-11-28T20:44:02.101Z,8.23
2022-11-28T20:46:32.076Z,8.22
2022-11-28T20:49:02.020Z,8.25
2022-11-28T20:51:36.296Z,8.25
2022-11-28T20:54:05.741Z,8.26
2022-11-28T20:56:51.633Z,8.24
2022-11-28T20:59:23.302Z,8.25
2022-11-28T21:01:51.075Z,8.17
2022-11-28T21:04:19.845Z,8.12
2022-11-28T21:06:49.935Z,8.10
2022-11-28T21:09:20.409Z,8.08
2022-11-28T21:11:58.011Z,8.06
2022-11-28T21:14:26.953Z,8.00
2022-11-28T21:16:54.922Z,8.02
2022-11-28T21:19:23.180Z,7.98
2022-11-28T21:21:52.328Z,7.99
2022-11-28T21:24:20.255Z,8.01
2022-11-28T21:26:53.020Z,7.99
2022-11-28T21:29:22.603Z,7.97
2022-11-28T21:31:50.473Z,8.00
2022-11-28T21:34:19.375Z,7.98
2022-11-28T21:36:47.482Z,8.03
2022-11-28T21:39:18.738Z,8.04
2022-11-28T21:41:46.928Z,8.06
2022-11-28T21:44:14.912Z,8.10
2022-11-28T21:46:43.635Z,8.12
2022-11-28T21:49:12.653Z,8.08
2022-11-28T21:51:41.510Z,8.11
2022-11-28T21:54:10.900Z,8.15
2022-11-28T21:56:40.115Z,8.08
2022-11-28T21:59:08.214Z,8.15
2022-11-28T22:01:36.130Z,8.08
2022-11-28T22:04:04.725Z,8.07
2022-11-28T22:06:32.901Z,8.16
2022-11-28T22:09:08.593Z,8.21
2022-11-28T22:11:37.845Z,8.27
2022-11-28T22:14:11.478Z,8.31
2022-11-28T22:16:40.790Z,8.33
2022-11-28T22:19:10.000Z,8.34
2022-11-28T22:21:55.768Z,8.35
2022-11-28T22:24:24.138Z,8.36
2022-11-28T22:26:51.899Z,8.33
2022-11-28T22:29:21.036Z,8.30
2022-11-28T22:31:49.882Z,8.29
2022-11-28T22:34:18.859Z,8.31
2022-11-28T22:36:46.557Z,8.36
2022-11-28T22:39:15.175Z,8.40
2022-11-28T22:41:43.286Z,8.43
2022-11-28T22:44:11.734Z,8.41
2022-11-28T22:46:41.194Z,8.40
2022-11-28T22:49:11.668Z,8.42
2022-11-28T22:51:40.107Z,8.43
2022-11-28T22:54:08.803Z,8.45
2022-11-28T22:56:36.655Z,8.45
2022-11-28T22:59:05.081Z,8.48
2022-11-28T23:01:34.809Z,8.47
2022-11-28T23:04:04.565Z,8.47
2022-11-28T23:06:34.289Z,8.39
2022-11-28T23:09:04.767Z,8.32
2022-11-28T23:11:35.204Z,8.29
2022-11-28T23:14:05.630Z,8.17
2022-11-28T23:16:35.446Z,8.21
2022-11-28T23:19:07.154Z,8.27
2022-11-28T23:21:38.485Z,8.35
2022-11-28T23:24:07.394Z,8.34
2022-11-28T23:26:35.674Z,8.22
2022-11-28T23:29:06.178Z,8.24
2022-11-28T23:31:38.191Z,8.15
2022-11-28T23:34:08.004Z,8.14
2022-11-28T23:36:42.177Z,8.10
2022-11-28T23:39:12.752Z,8.20
2022-11-28T23:41:40.555Z,8.20
2022-11-28T23:44:08.412Z,8.24
2022-11-28T23:46:36.734Z,8.36
2022-11-28T23:49:05.667Z,8.36
2022-11-28T23:51:35.207Z,8.40
2022-11-28T23:54:03.072Z,8.37
2022-11-28T23:56:34.681Z,8.43
2022-11-28T23:59:06.223Z,8.42
